Detall de PIREP

Printer-friendly versionPDF version

[2016/12/24 14:30:00]
Flight IATA:CT1004
Pilot Number:012
Company ICAO:CAT
Aircraft Type:DC85/A
PAX:132
Aircraft Registration:PAX
Departing Airport: EICK
Destination Airport: LFMP
Alternate Airport:LEBL
Online: VATSIM
Route:ERTER LEDGO UN160 INSUN UM142 BERAD UN490 TERPO UM616 TUPAR UM184 CNA UN863 SECHE UT24 GAI G36 ORBIL
Flight Level:F370
No Slew and time accel
No pause
Crash detect
Detect pilot in Cockpit between each 30 and 45 minutes
14:30 Zero fuel Weight: 166056 Lbs, Fuel Weight: 43293 Lbs
14:30 VATSIM:EICK 241400Z 24015KT 9999 FEW012 BKN020 10/08 Q1023 NOSIG
14:30 VATSIM:LFMP 241400Z AUTO 31016KT CAVOK 17/08 Q1034 TEMPO 30020G30KT
14:30 XMAS CHARTER
14:30 Parking Brakes off
14:33 Take-off
14:33 Take off Weight: 208715 Lbs
14:33 Wind: 244º @ 015 Knots Heading: 160º
14:33 POS N51º 50´ 05´´ W008º 29´ 15´´
14:33 Flaps:2 at 166 Knots
14:33 Gear Up: 174 Knots
14:33 Flaps:1 at 192 Knots
14:34 Flaps:0 at 203 Knots
14:48 Wind:324º@075 Knots Heading: 132º Ground Speed: 474 Knots Altitude 36213 ft
14:49 TOC
14:49 Fuel Weight: 37419 Lb
15:03 Wind:339º@054 Knots Heading: 144º Ground Speed: 522 Knots Altitude 37568 ft
15:18 Wind:336º@050 Knots Heading: 105º Ground Speed: 500 Knots Altitude 37621 ft
15:33 Wind:331º@048 Knots Heading: 161º Ground Speed: 511 Knots Altitude 37664 ft
15:48 Wind:327º@046 Knots Heading: 113º Ground Speed: 508 Knots Altitude 37700 ft
15:51 TOD
15:51 Fuel Weight: 24807 Lb
16:03 Wind:003º@023 Knots Heading: 143º Ground Speed: 402 Knots Altitude 13746 ft
16:08 Flaps:1 at 221 Knots
16:08 Flaps:2 at 219 Knots
16:09 Flaps:3 at 199 Knots
16:13 Flaps:4 at 197 Knots
16:13 Gear Down: 196 Knots
16:14 Flaps:5 at 147 Knots
16:16 TouchDown:Rate -308 ft/min Speed: 125 Knots
16:17 Flaps:2 at 62 Knots
16:17 Flaps:0 at 62 Knots
16:17 VATSIM:LFMP 241600Z AUTO 32007KT 290V350 9999 FEW047 16/08 Q1035 TEMPO 30020G30KT
16:17 Land
16:17 Wind:334º@012 Knots
16:17 Heading: 328º
16:17 Flight Duration: 01:44
16:17 Landing Weight: 187013 Lbs
16:17 POS N42º 44´ 58´´ E002º 51´ 56´´
16:20 Parking brakes on
16:20 Block to Block Duration: 01:50
16:20 Final Fuel: 20601 Lbls
16:20 Spent Fuel: 22691 Lbls
16:20 Flight Length: 786 NM
16:20 TOD Land Length: 142 NM

Exportar CSV

Powered by Drupal - Modified by Danger4k